Time;durP1;ratioP1;P1;durP2;ratioP2;P2;SDS_P1;SDS_P2;PMS_P1;PMS_P2;Temp;Humidity;BMP_temperature;BMP_pressure;BME280_temperature;BME280_humidity;BME280_pressure;Samples;Min_cycle;Max_cycle;Signal;HPM_P1;HPM_P2
2022/04/23 00:00:50;;;;;;;;;28.25;27.50;;;;;12.65;57.26;99036.56;4996926;28;45195;-61
2022/04/23 00:03:16;;;;;;;;;39.75;33.75;;;;;12.60;57.32;99027.31;4996803;28;45293;-61
2022/04/23 00:05:41;;;;;;;;;35.75;30.25;;;;;12.58;57.61;99032.69;4996834;28;45631;-60
2022/04/23 00:08:08;;;;;;;;;29.25;26.75;;;;;12.57;57.91;99034.50;4996680;28;46274;-63
2022/04/23 00:10:34;;;;;;;;;23.75;22.50;;;;;12.54;57.37;99032.09;4996632;28;45301;-61
2022/04/23 00:12:59;;;;;;;;;33.00;27.50;;;;;12.50;57.97;99030.63;4996512;28;45495;-64
2022/04/23 00:15:25;;;;;;;;;32.50;26.00;;;;;12.48;57.93;99031.69;4996549;28;45356;-61
2022/04/23 00:17:51;;;;;;;;;29.75;29.25;;;;;12.46;58.05;99023.88;4996480;28;46453;-60
2022/04/23 00:20:18;;;;;;;;;31.00;30.75;;;;;12.40;57.97;99025.16;4995735;28;45374;-62
2022/04/23 00:22:43;;;;;;;;;29.50;28.75;;;;;12.40;57.83;99019.91;4996689;28;45368;-64
2022/04/23 00:25:09;;;;;;;;;32.50;30.00;;;;;12.36;58.43;99009.69;4996648;28;45748;-66
2022/04/23 00:27:35;;;;;;;;;31.25;31.25;;;;;12.34;58.87;99009.78;4996453;28;46206;-64
2022/04/23 00:30:01;;;;;;;;;33.50;32.00;;;;;12.30;59.03;99008.34;4996686;28;45197;-60
2022/04/23 00:32:26;;;;;;;;;37.25;32.50;;;;;12.32;58.66;99016.97;4996468;28;45350;-61
2022/04/23 00:34:51;;;;;;;;;28.50;28.50;;;;;12.28;58.92;99012.88;4996978;28;45205;-65
2022/04/23 00:37:17;;;;;;;;;32.75;31.75;;;;;12.25;59.49;99005.19;4996424;28;46248;-68
2022/04/23 00:39:42;;;;;;;;;37.50;33.25;;;;;12.21;59.16;99001.09;4996478;28;45301;-62
2022/04/23 00:42:11;;;;;;;;;28.75;27.25;;;;;12.16;59.31;98993.50;4996488;28;45432;-64
2022/04/23 00:44:38;;;;;;;;;33.75;31.00;;;;;12.15;59.39;98996.28;4996780;28;45611;-65
2022/04/23 00:47:04;;;;;;;;;29.50;29.25;;;;;12.11;59.53;98982.47;4995887;28;45612;-61
2022/04/23 00:49:30;;;;;;;;;31.75;29.00;;;;;12.08;60.10;98993.22;4995921;28;45360;-60
2022/04/23 00:51:55;;;;;;;;;25.50;22.50;;;;;12.07;59.42;98981.84;4996323;28;45309;-62
2022/04/23 00:54:24;;;;;;;;;30.25;26.75;;;;;12.06;60.15;98989.84;4996225;28;45368;-59
2022/04/23 00:56:49;;;;;;;;;32.50;28.75;;;;;12.03;60.22;98990.06;4995890;28;46211;-61
2022/04/23 00:59:15;;;;;;;;;32.00;30.50;;;;;12.00;59.68;98983.25;4995808;28;45456;-60
2022/04/23 01:01:42;;;;;;;;;28.25;27.75;;;;;11.98;59.69;98979.84;4995646;28;45381;-63
2022/04/23 01:04:09;;;;;;;;;26.25;19.75;;;;;12.00;60.23;98975.34;4995947;28;45327;-61
2022/04/23 01:06:35;;;;;;;;;35.75;31.25;;;;;11.96;59.73;98979.94;4994071;28;48037;-59
2022/04/23 01:09:05;;;;;;;;;35.00;29.00;;;;;11.94;60.42;98978.38;4995690;28;45188;-59
2022/04/23 01:11:32;;;;;;;;;29.00;29.00;;;;;11.90;60.69;98976.94;4996138;28;45284;-61
2022/04/23 01:13:58;;;;;;;;;35.50;30.50;;;;;11.88;60.40;98965.66;4994880;28;45364;-59
2022/04/23 01:16:24;;;;;;;;;35.25;31.00;;;;;11.83;60.37;98963.34;4996189;28;45415;-61
2022/04/23 01:18:49;;;;;;;;;38.25;32.25;;;;;11.80;60.98;98953.88;4995985;28;45361;-61
2022/04/23 01:21:14;;;;;;;;;32.25;29.75;;;;;11.75;60.63;98955.13;4995721;28;45401;-61
2022/04/23 01:23:42;;;;;;;;;39.50;32.00;;;;;11.71;61.63;98956.31;4995893;28;45390;-61
2022/04/23 01:26:08;;;;;;;;;28.00;28.00;;;;;11.70;60.90;98958.13;4995431;28;46328;-62
2022/04/23 01:28:37;;;;;;;;;37.50;26.75;;;;;11.67;60.73;98956.53;4995615;28;45401;-66
2022/04/23 01:31:04;;;;;;;;;34.00;29.50;;;;;11.68;61.38;98960.84;4995565;28;45577;-61
2022/04/23 01:33:30;;;;;;;;;32.75;29.50;;;;;11.64;60.68;98966.41;4994804;28;45200;-61
2022/04/23 01:35:56;;;;;;;;;31.75;30.25;;;;;11.62;61.59;98968.31;4995966;28;46492;-60
2022/04/23 01:38:21;;;;;;;;;33.50;30.50;;;;;11.60;61.41;98964.94;4993783;28;45304;-61
2022/04/23 01:40:46;;;;;;;;;35.25;29.00;;;;;11.56;61.83;98953.81;4995341;28;45313;-64
2022/04/23 01:43:13;;;;;;;;;26.25;26.00;;;;;11.54;61.58;98961.81;4995490;28;45211;-66
2022/04/23 01:45:39;;;;;;;;;39.25;32.50;;;;;11.52;61.60;98952.34;4995040;28;46520;-61
2022/04/23 01:48:05;;;;;;;;;29.75;27.25;;;;;11.52;61.61;98953.16;4993847;28;45905;-63
2022/04/23 01:50:31;;;;;;;;;22.50;22.50;;;;;11.50;62.19;98951.59;4995275;28;45314;-61
2022/04/23 01:52:56;;;;;;;;;38.75;32.75;;;;;11.47;62.30;98950.03;4995758;28;45605;-64
2022/04/23 01:55:21;;;;;;;;;31.50;26.75;;;;;11.45;62.49;98951.91;4994971;28;45324;-62
2022/04/23 01:57:47;;;;;;;;;36.25;33.50;;;;;11.40;61.86;98946.13;4995067;28;45349;-62
2022/04/23 02:00:14;;;;;;;;;31.25;30.75;;;;;11.34;62.71;98936.88;4995282;28;45307;-65
2022/04/23 02:02:43;;;;;;;;;30.25;27.00;;;;;11.37;62.20;98943.72;4995296;28;45215;-65
2022/04/23 02:05:10;;;;;;;;;32.50;30.25;;;;;11.35;62.31;98940.34;4993492;28;46173;-65
2022/04/23 02:07:45;;;;;;;;;33.75;30.25;;;;;11.33;62.19;98936.97;4994882;28;45341;-62
2022/04/23 02:10:13;;;;;;;;;34.00;26.50;;;;;11.31;62.58;98941.50;4994929;28;45360;-62
2022/04/23 02:12:39;;;;;;;;;33.75;31.75;;;;;11.28;63.40;98947.00;4995356;28;45523;-64
2022/04/23 02:15:11;;;;;;;;;32.00;30.25;;;;;11.23;63.29;98937.63;4994846;28;45618;-63
2022/04/23 02:17:42;;;;;;;;;28.75;25.75;;;;;11.24;62.99;98935.84;4989504;28;45527;-67
2022/04/23 02:20:08;;;;;;;;;31.00;27.75;;;;;11.22;63.17;98941.19;4994785;28;45452;-66
2022/04/23 02:22:34;;;;;;;;;28.75;27.50;;;;;11.18;63.59;98923.94;4995380;28;45347;-71
2022/04/23 02:25:00;;;;;;;;;34.25;31.25;;;;;11.20;63.61;98929.94;5000379;28;46267;-69
2022/04/23 02:27:25;;;;;;;;;38.50;33.00;;;;;11.19;63.57;98925.63;4993915;28;45436;-68
2022/04/23 02:29:52;;;;;;;;;36.25;34.00;;;;;11.19;63.44;98930.88;4994371;28;45359;-73
2022/04/23 02:32:18;;;;;;;;;31.25;30.50;;;;;11.15;63.64;98925.97;4994375;28;45218;-66
2022/04/23 02:34:43;;;;;;;;;37.25;33.25;;;;;11.15;63.38;98921.53;4993339;28;46136;-73
2022/04/23 02:37:09;;;;;;;;;34.00;27.75;;;;;11.15;63.83;98920.69;4981941;28;45438;-74
2022/04/23 02:39:35;;;;;;;;;32.50;29.50;;;;;11.09;63.85;98912.25;4995812;28;45239;-66
2022/04/23 02:42:00;;;;;;;;;32.75;29.75;;;;;11.10;64.06;98919.19;4994960;28;45531;-65
2022/04/23 02:44:25;;;;;;;;;30.50;30.25;;;;;11.09;64.05;98911.44;4996288;28;46574;-60
2022/04/23 02:46:52;;;;;;;;;29.25;28.25;;;;;11.07;64.25;98908.06;4997834;28;45250;-65
2022/04/23 02:49:18;;;;;;;;;34.50;31.25;;;;;11.02;63.95;98905.72;4998043;28;45349;-63
2022/04/23 02:51:43;;;;;;;;;33.00;29.75;;;;;10.98;63.61;98896.38;4998093;28;45282;-61
2022/04/23 02:54:09;;;;;;;;;30.00;27.25;;;;;11.03;63.78;98902.16;4997631;28;45484;-63
2022/04/23 02:56:34;;;;;;;;;32.75;30.00;;;;;11.02;64.48;98900.47;4997794;28;45406;-63
2022/04/23 02:59:02;;;;;;;;;32.50;29.50;;;;;11.02;64.16;98895.22;4998371;28;45382;-61
2022/04/23 03:01:28;;;;;;;;;29.00;29.00;;;;;11.01;63.97;98897.97;4998158;28;45447;-65
2022/04/23 03:03:56;;;;;;;;;35.00;28.00;;;;;10.98;64.14;98890.28;4997480;28;46053;-63
2022/04/23 03:06:22;;;;;;;;;33.00;30.25;;;;;10.96;64.05;98891.22;4997663;28;45259;-64
2022/04/23 03:08:48;;;;;;;;;31.25;29.00;;;;;10.96;64.29;98898.25;4997602;28;45449;-64
2022/04/23 03:11:14;;;;;;;;;31.50;27.75;;;;;10.91;64.32;98889.84;4997343;28;45579;-64
2022/04/23 03:13:39;;;;;;;;;23.50;22.75;;;;;10.92;64.56;98894.16;4997059;28;46337;-60
2022/04/23 03:16:05;;;;;;;;;35.00;30.00;;;;;10.93;64.33;98895.84;4996742;28;45459;-61
2022/04/23 03:18:30;;;;;;;;;31.25;29.25;;;;;10.89;64.21;98884.72;4997545;28;45344;-61
2022/04/23 03:20:56;;;;;;;;;32.00;27.50;;;;;10.87;64.86;98878.72;4997508;28;46026;-60
2022/04/23 03:23:21;;;;;;;;;25.50;21.25;;;;;10.85;64.53;98877.97;4996893;28;46474;-62
2022/04/23 03:25:47;;;;;;;;;30.50;27.75;;;;;10.83;64.47;98882.50;4996799;28;45335;-61
2022/04/23 03:28:14;;;;;;;;;29.00;27.00;;;;;10.80;64.77;98880.09;4997110;28;45438;-61
2022/04/23 03:30:40;;;;;;;;;29.00;28.00;;;;;10.77;64.80;98878.47;4997354;28;45409;-62
2022/04/23 03:33:06;;;;;;;;;33.25;31.75;;;;;10.77;65.06;98875.03;4996263;28;45533;-61
2022/04/23 03:35:31;;;;;;;;;41.00;31.00;;;;;10.75;65.28;98876.94;4996586;28;45380;-62
2022/04/23 03:37:58;;;;;;;;;34.25;31.75;;;;;10.74;65.21;98870.81;4997044;28;45223;-60
2022/04/23 03:40:23;;;;;;;;;32.50;31.25;;;;;10.72;65.10;98869.25;4978970;28;45409;-64
2022/04/23 03:42:49;;;;;;;;;36.00;30.50;;;;;10.70;64.68;98858.81;4996345;28;45404;-65
2022/04/23 03:45:17;;;;;;;;;29.50;29.00;;;;;10.71;64.98;98862.31;4996684;28;45333;-63
2022/04/23 03:47:44;;;;;;;;;29.25;24.00;;;;;10.69;64.75;98851.88;4996633;28;45384;-64
2022/04/23 03:50:10;;;;;;;;;34.25;31.50;;;;;10.70;64.79;98853.56;4996643;28;45479;-65
2022/04/23 03:52:35;;;;;;;;;33.00;29.00;;;;;10.69;64.72;98851.03;4996891;28;45985;-61
2022/04/23 03:55:01;;;;;;;;;31.00;29.25;;;;;10.67;65.23;98859.03;4996128;28;45253;-64
2022/04/23 03:57:27;;;;;;;;;30.75;28.00;;;;;10.69;65.13;98866.81;4996432;28;45459;-64
2022/04/23 03:59:53;;;;;;;;;28.75;26.00;;;;;10.72;64.27;98867.44;4992366;28;45532;-64
2022/04/23 04:02:18;;;;;;;;;26.00;26.00;;;;;10.76;64.03;98870.72;4996499;28;46474;-63
2022/04/23 04:04:45;;;;;;;;;30.50;29.50;;;;;10.76;63.91;98865.47;4996191;28;45527;-64
2022/04/23 04:07:17;;;;;;;;;36.25;32.50;;;;;10.79;64.25;98852.09;4995880;28;45448;-64
2022/04/23 04:09:43;;;;;;;;;19.75;19.00;;;;;10.75;64.07;98846.19;4996152;28;45499;-62
2022/04/23 04:12:10;;;;;;;;;27.00;25.25;;;;;10.72;64.51;98848.22;4996400;28;46532;-63
2022/04/23 04:14:36;;;;;;;;;31.00;28.75;;;;;10.69;64.58;98846.63;4996533;28;45303;-61
2022/04/23 04:17:09;;;;;;;;;30.50;29.75;;;;;10.68;64.00;98846.72;4996843;28;45514;-63
2022/04/23 04:19:35;;;;;;;;;31.50;28.75;;;;;10.71;64.00;98846.53;4997048;28;45456;-63
2022/04/23 04:22:04;;;;;;;;;29.00;27.75;;;;;10.72;63.86;98841.16;4996197;28;45393;-62
2022/04/23 04:24:31;;;;;;;;;32.75;27.25;;;;;10.70;63.66;98850.09;4995603;28;45421;-63
2022/04/23 04:26:57;;;;;;;;;25.50;25.50;;;;;10.69;64.08;98857.13;4996223;28;45439;-62
2022/04/23 04:29:22;;;;;;;;;30.00;27.75;;;;;10.66;63.77;98846.81;4996378;28;45227;-62
2022/04/23 04:31:48;;;;;;;;;32.50;30.50;;;;;10.64;64.28;98846.94;4995670;28;45495;-62
2022/04/23 04:34:18;;;;;;;;;26.50;25.75;;;;;10.62;64.53;98848.84;4995540;28;45410;-62
2022/04/23 04:36:48;;;;;;;;;38.75;33.25;;;;;10.62;64.27;98835.69;4983422;28;45459;-62
2022/04/23 04:39:15;;;;;;;;;32.50;28.75;;;;;10.59;64.92;98840.31;4996023;28;45462;-63
2022/04/23 04:41:41;;;;;;;;;35.50;31.50;;;;;10.58;64.21;98843.88;4995880;28;47357;-61
2022/04/23 04:44:07;;;;;;;;;34.75;31.25;;;;;10.58;64.29;98846.50;4996234;28;45701;-64
2022/04/23 04:46:34;;;;;;;;;31.75;31.75;;;;;10.57;64.50;98843.03;4995919;28;45262;-64
2022/04/23 04:49:02;;;;;;;;;25.00;23.00;;;;;10.57;64.93;98845.66;4996323;28;45599;-60
2022/04/23 04:51:28;;;;;;;;;33.75;31.00;;;;;10.54;64.80;98839.78;4995232;28;46397;-61
2022/04/23 04:53:53;;;;;;;;;35.25;32.00;;;;;10.52;64.99;98839.88;4995362;28;45347;-60
2022/04/23 04:56:19;;;;;;;;;30.75;26.75;;;;;10.49;65.28;98845.34;4995944;28;45420;-61
2022/04/23 04:58:46;;;;;;;;;30.25;27.25;;;;;10.44;64.87;98836.91;4996140;28;45318;-62
2022/04/23 05:01:12;;;;;;;;;31.75;30.50;;;;;10.44;65.57;98829.88;4995521;28;46055;-64
2022/04/23 05:03:39;;;;;;;;;34.00;32.25;;;;;10.40;65.43;98822.31;4995807;28;45310;-61
2022/04/23 05:06:05;;;;;;;;;28.25;27.25;;;;;10.44;65.46;98844.81;4995370;28;45259;-61
2022/04/23 05:08:30;;;;;;;;;30.00;28.50;;;;;10.45;65.40;98843.84;4995551;28;45354;-63
2022/04/23 05:10:56;;;;;;;;;37.75;32.50;;;;;10.48;64.72;98847.13;4995125;28;45350;-62
2022/04/23 05:13:21;;;;;;;;;35.25;32.00;;;;;10.50;65.26;98847.88;4994884;28;45819;-61
2022/04/23 05:15:48;;;;;;;;;32.00;27.75;;;;;10.52;64.75;98843.34;4995653;28;45244;-61
2022/04/23 05:18:14;;;;;;;;;33.00;29.75;;;;;10.56;64.50;98848.41;4995494;28;45599;-63
2022/04/23 05:20:39;;;;;;;;;27.50;25.75;;;;;10.56;64.66;98843.13;4994943;28;46440;-60
2022/04/23 05:23:04;;;;;;;;;36.50;32.25;;;;;10.58;64.67;98843.88;4995164;28;45382;-61
2022/04/23 05:25:30;;;;;;;;;31.25;26.50;;;;;10.57;65.02;98832.50;4995462;28;45497;-63
2022/04/23 05:27:55;;;;;;;;;33.00;28.75;;;;;10.60;64.85;98831.47;4995471;28;45480;-63
2022/04/23 05:30:20;;;;;;;;;27.25;27.25;;;;;10.62;64.41;98835.69;4994463;28;45345;-64
2022/04/23 05:32:46;;;;;;;;;36.25;32.50;;;;;10.66;64.58;98837.16;4994874;28;45326;-63
2022/04/23 05:35:11;;;;;;;;;31.75;29.25;;;;;10.68;64.61;98836.22;4994731;28;45360;-62
2022/04/23 05:37:37;;;;;;;;;40.75;34.00;;;;;10.67;64.23;98822.22;4994095;28;45686;-65
2022/04/23 05:40:02;;;;;;;;;34.75;32.00;;;;;10.72;64.39;98825.38;4994264;28;45449;-62
2022/04/23 05:42:27;;;;;;;;;36.50;32.75;;;;;10.73;65.00;98826.22;4994745;28;45271;-61
2022/04/23 05:44:53;;;;;;;;;31.50;28.00;;;;;10.76;64.17;98820.75;4994898;28;47554;-63
2022/04/23 05:47:18;;;;;;;;;32.00;28.75;;;;;10.83;64.37;98827.25;4994920;28;45687;-64
2022/04/23 05:49:43;;;;;;;;;34.75;31.25;;;;;10.91;63.97;98822.31;4994683;28;45439;-62
2022/04/23 05:52:10;;;;;;;;;29.00;29.00;;;;;10.99;63.67;98820.94;4995472;28;45243;-63
2022/04/23 05:54:35;;;;;;;;;28.50;25.50;;;;;11.04;63.91;98809.13;4995073;28;45393;-62
2022/04/23 05:57:01;;;;;;;;;35.00;31.00;;;;;11.11;63.90;98812.16;4994683;28;45452;-63
2022/04/23 05:59:28;;;;;;;;;26.75;26.75;;;;;11.19;63.48;98814.28;4994326;28;45410;-66
2022/04/23 06:01:55;;;;;;;;;29.50;28.50;;;;;11.18;63.29;98805.50;4994376;28;45430;-63
2022/04/23 06:04:20;;;;;;;;;35.75;33.00;;;;;11.22;62.92;98801.72;4994287;28;45439;-64
2022/04/23 06:06:45;;;;;;;;;35.00;31.25;;;;;11.30;62.90;98811.72;4994409;28;45500;-64
2022/04/23 06:09:12;;;;;;;;;30.50;29.00;;;;;11.38;62.74;98816.41;4994892;28;46216;-61
2022/04/23 06:11:38;;;;;;;;;35.00;31.75;;;;;11.45;62.64;98825.53;4994502;28;45441;-64
2022/04/23 06:14:03;;;;;;;;;29.25;28.75;;;;;11.54;62.37;98822.25;4994659;28;45207;-64
2022/04/23 06:16:29;;;;;;;;;30.75;28.75;;;;;11.67;61.56;98838.00;4994588;28;45175;-62
2022/04/23 06:18:54;;;;;;;;;35.00;31.00;;;;;11.89;61.63;98851.41;4995676;28;46529;-60
2022/04/23 06:21:21;;;;;;;;;30.75;30.00;;;;;12.11;61.28;98859.44;4998027;28;45342;-62
2022/04/23 06:23:46;;;;;;;;;33.25;31.00;;;;;12.31;60.98;98857.09;4996463;28;45292;-63
2022/04/23 06:26:11;;;;;;;;;34.00;32.75;;;;;12.46;60.07;98852.47;4998396;28;45468;-65
2022/04/23 06:28:37;;;;;;;;;42.00;34.50;;;;;12.60;59.98;98856.69;4997991;28;45879;-63
2022/04/23 06:31:02;;;;;;;;;35.50;32.50;;;;;12.78;59.51;98865.00;4997741;28;45613;-64
2022/04/23 06:33:27;;;;;;;;;31.00;29.00;;;;;12.95;59.37;98866.34;4997379;28;45384;-65
2022/04/23 06:35:53;;;;;;;;;31.00;28.50;;;;;13.18;59.07;98868.13;4997694;28;45627;-64
2022/04/23 06:38:18;;;;;;;;;33.75;30.50;;;;;13.33;57.73;98842.31;4997680;28;46511;-62
2022/04/23 06:40:43;;;;;;;;;37.00;33.00;;;;;13.45;57.61;98857.22;4997916;28;49081;-61
2022/04/23 06:43:09;;;;;;;;;33.75;30.50;;;;;13.63;57.52;98862.84;4996704;28;45507;-63
2022/04/23 06:45:34;;;;;;;;;29.25;26.50;;;;;13.83;56.75;98860.38;4998226;28;45667;-62
2022/04/23 06:48:04;;;;;;;;;33.25;29.75;;;;;13.93;56.19;98848.09;4997717;28;45344;-64
2022/04/23 06:50:33;;;;;;;;;31.25;28.75;;;;;14.05;55.81;98840.97;4979911;28;45857;-64
2022/04/23 06:52:59;;;;;;;;;38.75;33.00;;;;;14.10;55.79;98837.94;4996283;28;45332;-65
2022/04/23 06:55:25;;;;;;;;;28.50;27.25;;;;;14.22;55.58;98846.66;4997606;28;45413;-61
2022/04/23 06:57:50;;;;;;;;;31.25;29.75;;;;;14.38;55.58;98857.63;4997468;28;46302;-63
2022/04/23 07:00:17;;;;;;;;;32.75;31.50;;;;;14.56;54.76;98857.91;4997616;28;45502;-62
2022/04/23 07:02:43;;;;;;;;;32.00;31.00;;;;;14.66;54.77;98857.13;4997868;28;45338;-63
2022/04/23 07:05:08;;;;;;;;;36.00;30.75;;;;;14.75;54.11;98854.53;4997181;28;45515;-62
2022/04/23 07:07:33;;;;;;;;;32.50;27.75;;;;;14.77;54.15;98846.47;4996790;28;47195;-63
2022/04/23 07:09:59;;;;;;;;;32.00;28.25;;;;;14.75;54.12;98843.13;4997024;28;45470;-62
2022/04/23 07:12:24;;;;;;;;;29.25;25.75;;;;;14.79;53.71;98841.91;4996720;28;45262;-64
2022/04/23 07:14:50;;;;;;;;;33.00;30.00;;;;;14.79;54.05;98846.34;4997538;28;45649;-62
2022/04/23 07:17:23;;;;;;;;;33.25;30.75;;;;;14.80;53.40;98837.41;4997280;28;46281;-59
2022/04/23 07:19:48;;;;;;;;;32.25;30.00;;;;;14.63;53.32;98841.50;4979024;28;45388;-63
2022/04/23 07:22:13;;;;;;;;;32.25;29.75;;;;;14.57;54.12;98848.13;4996990;28;45462;-62
2022/04/23 07:24:39;;;;;;;;;32.00;29.25;;;;;14.58;54.10;98833.94;4997499;28;45733;-60
2022/04/23 07:27:04;;;;;;;;;32.00;31.00;;;;;14.56;53.89;98842.03;4996300;28;45350;-65
2022/04/23 07:29:29;;;;;;;;;30.50;29.25;;;;;14.56;53.54;98835.88;4996987;28;45401;-62
2022/04/23 07:31:56;;;;;;;;;34.25;32.00;;;;;14.50;53.81;98845.19;4995732;28;45246;-65
2022/04/23 07:40:10;;;;;;;;;36.50;30.75;;;;;14.59;54.15;98836.47;4983230;28;45294;-62
2022/04/23 07:42:37;;;;;;;;;33.25;29.25;;;;;14.68;53.58;98849.88;4996475;28;45545;-61
2022/04/23 07:45:03;;;;;;;;;30.00;23.00;;;;;14.75;53.75;98853.72;4996788;28;45504;-62
2022/04/23 07:47:28;;;;;;;;;34.00;32.25;;;;;14.85;53.37;98843.19;4983086;28;46214;-64
2022/04/23 07:49:54;;;;;;;;;35.25;31.00;;;;;14.94;53.49;98842.41;4996587;28;45297;-61
2022/04/23 07:52:19;;;;;;;;;30.00;29.75;;;;;15.12;53.28;98836.47;4994768;28;45331;-65
2022/04/23 07:54:45;;;;;;;;;33.75;30.25;;;;;15.35;53.15;98837.06;4997158;28;45318;-61
2022/04/23 07:57:11;;;;;;;;;38.25;31.25;;;;;15.58;52.59;98828.94;4996561;28;45428;-62
2022/04/23 07:59:41;;;;;;;;;34.00;30.50;;;;;15.82;52.69;98833.81;4994731;28;45903;-62
2022/04/23 08:02:08;;;;;;;;;59.50;46.00;;;;;16.01;51.58;98827.72;4995743;28;45564;-63
2022/04/23 08:04:33;;;;;;;;;64.25;49.50;;;;;16.22;51.67;98824.06;4996827;28;45519;-64
2022/04/23 08:06:58;;;;;;;;;43.00;35.75;;;;;16.45;50.98;98827.25;4995982;28;45355;-62
2022/04/23 08:09:24;;;;;;;;;36.50;32.50;;;;;16.65;50.80;98821.91;4996202;28;45350;-66
2022/04/23 08:11:49;;;;;;;;;34.00;30.75;;;;;16.76;50.17;98831.53;4995595;28;45417;-60
2022/04/23 08:14:14;;;;;;;;;35.75;32.50;;;;;16.72;49.66;98825.66;4996470;28;45607;-64
2022/04/23 08:16:41;;;;;;;;;38.75;32.25;;;;;16.68;50.27;98824.28;4996237;28;46048;-63
2022/04/23 08:19:08;;;;;;;;;32.50;30.00;;;;;16.82;49.74;98824.78;4996541;28;45376;-62
2022/04/23 08:21:34;;;;;;;;;32.50;30.50;;;;;16.76;49.87;98811.09;4995927;28;45309;-60
2022/04/23 08:23:59;;;;;;;;;37.75;32.50;;;;;16.86;49.57;98815.53;4995736;28;45483;-60
2022/04/23 08:26:25;;;;;;;;;37.75;31.50;;;;;16.81;49.53;98792.09;4995214;28;50119;-60
2022/04/23 08:31:34;;;;;;;;;36.50;33.00;;;;;16.92;49.80;98813.16;4995500;28;45234;-65
2022/04/23 08:33:59;;;;;;;;;40.00;34.25;;;;;17.10;49.65;98811.59;4995715;28;45279;-65
2022/04/23 08:36:27;;;;;;;;;39.00;33.00;;;;;17.23;48.98;98809.41;4995247;28;45392;-65
2022/04/23 08:38:56;;;;;;;;;34.75;32.25;;;;;17.24;48.79;98813.75;4994001;28;45340;-64
2022/04/23 08:41:28;;;;;;;;;34.00;32.25;;;;;17.19;49.13;98810.69;4977436;28;45363;-64
2022/04/23 08:43:55;;;;;;;;;34.25;30.50;;;;;17.20;48.94;98809.72;4995263;28;45488;-64
2022/04/23 08:46:22;;;;;;;;;29.00;27.75;;;;;17.12;48.98;98809.63;4993736;28;46282;-62
2022/04/23 08:48:50;;;;;;;;;33.50;31.25;;;;;17.11;48.79;98803.47;4978900;28;45370;-63
2022/04/23 08:51:20;;;;;;;;;31.25;29.25;;;;;17.11;49.05;98816.75;4995053;28;45353;-60
2022/04/23 08:53:47;;;;;;;;;38.00;34.50;;;;;17.16;49.38;98819.78;4995989;28;45346;-64
2022/04/23 08:56:13;;;;;;;;;37.75;33.00;;;;;17.22;49.26;98811.22;4995379;28;46043;-65
2022/04/23 08:58:42;;;;;;;;;35.00;33.00;;;;;17.27;49.27;98818.75;4995280;28;45420;-63
2022/04/23 09:01:07;;;;;;;;;33.00;31.00;;;;;17.34;49.35;98809.22;4995322;28;45481;-63
2022/04/23 09:03:32;;;;;;;;;36.75;32.00;;;;;17.48;49.09;98820.31;4994056;28;45537;-61
2022/04/23 09:05:58;;;;;;;;;29.50;29.25;;;;;17.53;48.95;98807.41;4995006;28;45398;-62
2022/04/23 09:08:25;;;;;;;;;34.50;31.50;;;;;17.60;48.61;98813.81;4995382;28;45435;-63
2022/04/23 09:10:54;;;;;;;;;36.75;32.75;;;;;17.59;48.68;98812.13;4961899;28;45293;-63
2022/04/23 09:13:31;;;;;;;;;39.50;33.75;;;;;17.69;48.70;98813.88;4995357;28;45485;-65
2022/04/23 09:24:18;;;;;;;;;42.50;35.75;;;;;18.15;48.04;98812.00;4996056;28;45254;-64
2022/04/23 09:27:01;;;;;;;;;34.50;32.25;;;;;18.33;47.25;98819.94;4994713;28;45316;-63
2022/04/23 09:29:29;;;;;;;;;36.00;31.25;;;;;18.46;47.26;98814.22;4995200;28;45406;-65
2022/04/23 09:32:11;;;;;;;;;37.50;32.00;;;;;18.55;47.12;98825.75;4991957;28;45357;-65
2022/04/23 09:34:37;;;;;;;;;36.25;32.50;;;;;18.48;46.78;98806.06;4993871;28;45373;-60
2022/04/23 09:37:02;;;;;;;;;38.75;32.50;;;;;18.55;47.58;98815.09;4994689;28;45435;-61
2022/04/23 09:39:34;;;;;;;;;36.75;33.00;;;;;18.67;47.07;98805.88;4994445;28;45252;-64
2022/04/23 09:42:16;;;;;;;;;36.75;31.00;;;;;18.69;47.02;98789.72;4994751;28;45362;-62
2022/04/23 09:44:43;;;;;;;;;32.75;31.25;;;;;18.97;45.99;98810.88;4993655;28;45219;-63
2022/04/23 09:47:08;;;;;;;;;40.25;33.25;;;;;18.97;46.61;98801.06;4994000;28;45472;-61
2022/04/23 09:49:34;;;;;;;;;36.25;32.75;;;;;18.97;46.12;98805.53;4994493;28;45360;-61
2022/04/23 09:52:02;;;;;;;;;40.00;32.75;;;;;19.12;46.16;98805.78;4994775;28;45329;-62
2022/04/23 09:54:30;;;;;;;;;30.00;27.75;;;;;19.32;45.83;98810.84;4993786;28;45689;-60
2022/04/23 09:56:56;;;;;;;;;39.75;34.75;;;;;19.41;45.08;98810.72;4994521;28;45438;-60
2022/04/23 09:59:21;;;;;;;;;33.25;31.75;;;;;19.54;45.81;98807.56;4994574;28;45274;-64
2022/04/23 10:01:49;;;;;;;;;29.50;28.25;;;;;19.65;45.04;98809.09;4994733;28;45985;-63
2022/04/23 10:04:18;;;;;;;;;34.50;29.25;;;;;19.84;44.74;98815.13;4994617;28;45341;-60
2022/04/23 10:06:47;;;;;;;;;33.00;31.25;;;;;19.97;44.89;98812.00;4976660;28;46100;-64
2022/04/23 10:09:17;;;;;;;;;35.25;32.25;;;;;20.07;44.17;98806.50;4994222;28;45421;-68
2022/04/23 10:11:44;;;;;;;;;38.50;31.25;;;;;20.12;44.42;98802.34;4994697;28;45365;-63
2022/04/23 10:14:11;;;;;;;;;36.00;32.00;;;;;20.26;43.61;98800.00;4993614;28;45262;-62
2022/04/23 10:16:38;;;;;;;;;30.75;27.75;;;;;20.38;43.90;98803.97;4994520;28;46313;-62
2022/04/23 10:19:04;;;;;;;;;25.50;25.50;;;;;20.44;43.93;98808.66;4976719;28;45389;-63
2022/04/23 10:21:39;;;;;;;;;35.25;31.25;;;;;20.55;43.58;98802.13;4997320;28;45345;-63
2022/04/23 10:24:16;;;;;;;;;32.25;29.00;;;;;20.67;43.58;98809.78;4976572;28;45491;-63
2022/04/23 10:26:54;;;;;;;;;28.00;27.00;;;;;20.83;43.30;98796.41;4994172;28;46287;-61
2022/04/23 10:29:21;;;;;;;;;32.75;30.75;;;;;20.96;43.26;98798.53;4992901;28;45368;-62
2022/04/23 10:32:08;;;;;;;;;28.50;28.25;;;;;21.19;42.92;98802.28;4975674;28;45489;-65
2022/04/23 10:34:34;;;;;;;;;30.00;29.25;;;;;21.31;42.54;98800.91;4993775;28;45398;-64
2022/04/23 10:37:16;;;;;;;;;30.75;28.25;;;;;21.39;42.21;98797.34;5013022;28;45552;-62
2022/04/23 10:39:42;;;;;;;;;30.00;29.00;;;;;21.51;42.33;98792.44;4995421;28;45374;-67
2022/04/23 10:42:13;;;;;;;;;39.00;32.50;;;;;21.63;41.70;98785.69;5013724;28;45617;-65
2022/04/23 10:44:38;;;;;;;;;35.00;31.25;;;;;21.62;41.46;98789.34;4978063;28;45457;-62
2022/04/23 10:47:29;;;;;;;;;39.75;33.75;;;;;21.67;41.99;98787.00;4993373;28;46575;-69
2022/04/23 10:50:18;;;;;;;;;33.50;30.50;;;;;21.95;41.22;98791.00;4990541;28;45414;-63
2022/04/23 10:52:49;;;;;;;;;31.00;28.00;;;;;22.07;41.41;98794.06;4992998;28;45354;-65
2022/04/23 10:55:15;;;;;;;;;29.75;28.25;;;;;22.17;41.01;98794.63;4993175;28;45463;-62
2022/04/23 10:57:54;;;;;;;;;28.50;26.50;;;;;22.24;40.98;98792.91;4992915;28;46762;-61
2022/04/23 11:00:21;;;;;;;;;27.00;24.75;;;;;22.30;40.63;98786.84;4993351;28;45393;-64
2022/04/23 11:02:48;;;;;;;;;26.75;26.75;;;;;22.39;39.90;98794.81;4993101;28;45390;-65
2022/04/23 11:13:56;;;;;;;;;22.25;21.25;;;;;22.30;40.38;98783.31;4996851;28;45539;-65
2022/04/23 11:16:23;;;;;;;;;18.50;18.50;;;;;22.25;39.42;98788.38;4996850;28;45213;-63
2022/04/23 11:18:52;;;;;;;;;22.75;21.75;;;;;22.20;39.61;98783.56;4987560;28;46135;-64
2022/04/23 11:21:28;;;;;;;;;23.75;21.50;;;;;22.23;39.86;98775.16;4996815;28;45875;-65
2022/04/23 11:23:56;;;;;;;;;19.50;19.50;;;;;22.30;40.03;98777.97;4996668;28;45270;-68
2022/04/23 11:26:38;;;;;;;;;19.00;17.75;;;;;22.45;39.34;98778.84;4997334;28;45278;-66
2022/04/23 11:29:04;;;;;;;;;23.00;22.25;;;;;22.64;39.23;98781.19;4996272;28;46711;-67
2022/04/23 11:31:29;;;;;;;;;15.50;15.50;;;;;22.87;38.51;98776.53;4996056;28;45361;-71
2022/04/23 11:33:59;;;;;;;;;11.75;11.75;;;;;23.09;37.37;98765.88;4996735;28;45213;-72
2022/04/23 11:36:29;;;;;;;;;15.75;14.75;;;;;23.24;37.68;98760.53;4985468;28;45315;-71
2022/04/23 11:38:55;;;;;;;;;17.75;17.00;;;;;23.43;37.64;98763.63;4997748;28;45613;-70
2022/04/23 11:41:30;;;;;;;;;19.00;15.00;;;;;23.63;37.54;98761.97;4998582;28;45469;-71